Time;durP1;ratioP1;P1;durP2;ratioP2;P2;SDS_P1;SDS_P2;PMS_P1;PMS_P2;Temp;Humidity;BMP_temperature;BMP_pressure;BME280_temperature;BME280_humidity;BME280_pressure;Samples;Min_cycle;Max_cycle;Signal;HPM_P1;HPM_P2
2022/01/19 00:03:10;;;;;;;223.13;161.85;;;20.00;38.80;;;;;;4762163;55;21021;-35
2022/01/19 00:08:18;;;;;;;217.07;156.93;;;20.00;38.70;;;;;;4769626;55;21531;-35
2022/01/19 00:13:19;;;;;;;224.05;163.10;;;20.00;38.70;;;;;;4750901;55;21623;-37
2022/01/19 00:18:23;;;;;;;213.35;157.23;;;20.00;38.70;;;;;;4744865;55;21050;-33
2022/01/19 00:23:24;;;;;;;222.27;161.85;;;20.00;38.60;;;;;;4774671;55;21030;-37
2022/01/19 00:28:25;;;;;;;228.82;164.13;;;20.00;38.60;;;;;;4747246;55;21029;-34
2022/01/19 00:33:26;;;;;;;220.55;159.48;;;20.00;38.60;;;;;;4744440;55;21105;-34
2022/01/19 00:38:27;;;;;;;225.62;160.60;;;20.00;38.70;;;;;;4771668;55;21097;-35
2022/01/19 00:43:28;;;;;;;221.48;161.05;;;20.00;38.60;;;;;;4746951;55;21022;-36
2022/01/19 00:48:29;;;;;;;222.32;160.30;;;20.00;38.60;;;;;;4746168;55;21556;-36
2022/01/19 00:53:30;;;;;;;218.45;159.35;;;19.90;38.50;;;;;;4788535;55;21176;-38
2022/01/19 00:58:31;;;;;;;217.85;157.50;;;20.00;38.60;;;;;;4746530;55;21066;-37
2022/01/19 01:03:32;;;;;;;223.55;161.30;;;20.00;38.50;;;;;;4747292;55;21097;-37
2022/01/19 01:08:32;;;;;;;216.10;156.80;;;19.90;38.40;;;;;;4747669;55;21124;-40
2022/01/19 01:18:53;;;;;;;213.70;154.00;;;19.90;38.40;;;;;;4737538;55;21050;-36
2022/01/19 01:23:54;;;;;;;215.23;155.40;;;19.90;38.40;;;;;;4743852;55;21054;-37
2022/01/19 01:28:54;;;;;;;210.18;152.40;;;19.90;38.50;;;;;;4770189;55;21002;-37
2022/01/19 01:33:55;;;;;;;210.88;150.68;;;19.90;38.40;;;;;;4771310;55;21476;-36
2022/01/19 01:38:56;;;;;;;206.00;147.02;;;19.90;38.40;;;;;;4737888;59;21491;-37
2022/01/19 01:43:57;;;;;;;214.25;152.90;;;19.90;38.30;;;;;;4766485;55;21025;-37
2022/01/19 01:48:58;;;;;;;210.80;151.32;;;19.90;38.30;;;;;;4746957;55;21524;-36
2022/01/19 01:54:00;;;;;;;209.62;148.80;;;19.90;38.40;;;;;;4738418;59;21591;-38
2022/01/19 01:59:00;;;;;;;206.87;150.38;;;19.90;38.30;;;;;;4771164;55;21068;-35
2022/01/19 02:04:01;;;;;;;207.60;149.62;;;19.90;38.00;;;;;;4746561;55;21556;-35
2022/01/19 02:09:14;;;;;;;212.05;147.68;;;19.80;38.20;;;;;;4742769;55;21576;-41
2022/01/19 02:25:05;;;;;;;206.40;144.62;;;19.90;38.20;;;;;;4740958;55;21540;-37
2022/01/19 02:30:46;;;;;;;199.00;141.77;;;19.80;38.10;;;;;;4780057;55;21045;-37
2022/01/19 02:41:06;;;;;;;190.62;138.10;;;19.80;38.70;;;;;;4736892;55;21030;-35
2022/01/19 02:51:27;;;;;;;192.93;139.55;;;19.80;38.00;;;;;;4737789;55;21034;-36
2022/01/19 02:56:32;;;;;;;192.50;139.05;;;19.80;38.00;;;;;;4758262;55;21480;-35
2022/01/19 03:12:53;;;;;;;189.52;137.73;;;19.80;37.90;;;;;;4756163;55;21105;-37
2022/01/19 03:17:58;;;;;;;181.65;130.70;;;19.80;37.90;;;;;;4754666;55;21061;-38
2022/01/19 03:23:05;;;;;;;182.00;131.70;;;19.80;37.90;;;;;;4763601;55;21841;-32
2022/01/19 03:28:07;;;;;;;186.50;133.32;;;19.80;37.90;;;;;;4764175;55;21523;-34
2022/01/19 03:33:09;;;;;;;180.15;131.35;;;19.80;37.80;;;;;;4786376;55;21029;-37
2022/01/19 03:38:12;;;;;;;175.00;127.95;;;19.80;37.80;;;;;;4737881;59;21579;-33
2022/01/19 03:43:13;;;;;;;177.07;129.55;;;19.80;37.80;;;;;;4758874;55;21452;-38
2022/01/19 03:48:36;;;;;;;176.95;129.05;;;19.80;37.70;;;;;;4777197;55;21002;-38
2022/01/19 03:53:37;;;;;;;168.48;124.55;;;19.80;37.70;;;;;;4760104;55;21153;-38
2022/01/19 03:58:38;;;;;;;169.10;126.20;;;19.80;37.70;;;;;;4738097;59;21014;-35
2022/01/19 04:12:18;;;;;;;159.30;119.30;;;19.70;37.70;;;;;;4747991;55;21145;-37
2022/01/19 04:17:19;;;;;;;160.98;117.03;;;19.80;37.70;;;;;;4762856;55;21010;-39
2022/01/19 04:22:21;;;;;;;161.25;117.40;;;19.70;37.60;;;;;;4755084;55;21444;-39
2022/01/19 04:33:12;;;;;;;164.45;118.82;;;19.70;37.50;;;;;;4745154;55;21062;-38
